Clanton, Alabama
Current Conditions -  °F | °C
As of 11:53 PM on Sunday 25 Jan 2015 (Local Time) from KEET Reporting Station
Overcast Overcast  
Wind Chill: 42°   Ceiling: 4100
Heat Index: 46°   Visibility: 10mi
Dew Point: 42°   Wind: 8mph
Humidity: 86%   Direction: 290°WNW
Pressure: 29.82"   Gusts: NA
Location:  32.84°N, 86.63°W
Report Text: KEET 260553Z AUTO 29007KT 10SM BKN041 OVC060 08/06 A2982 RMK AO2 SLP098 60007 T00780056 10144 20072 401671006 51002
Loading
Personal Weather Stations






























Interactive Weather Map New forecast layout! Learn more

10-Day Weather Forecast

Advertisements
Track Severe Weather on mobile